sensor_id;sensor_type;location;lat;lon;timestamp;P1;durP1;ratioP1;P2;durP2;ratioP2
75616;SDS011;64200;55.426;37.758;2023-08-24T00:03:24;5.85;;;4.10;;
75616;SDS011;64200;55.426;37.758;2023-08-24T00:08:25;9.10;;;4.78;;
75616;SDS011;64200;55.426;37.758;2023-08-24T00:13:26;7.30;;;4.85;;
75616;SDS011;64200;55.426;37.758;2023-08-24T00:18:26;6.63;;;4.13;;
75616;SDS011;64200;55.426;37.758;2023-08-24T00:23:27;7.13;;;4.50;;
75616;SDS011;64200;55.426;37.758;2023-08-24T00:28:28;5.20;;;4.15;;
75616;SDS011;64200;55.426;37.758;2023-08-24T00:33:29;6.00;;;3.93;;
75616;SDS011;64200;55.426;37.758;2023-08-24T00:38:30;5.32;;;4.57;;
75616;SDS011;64200;55.426;37.758;2023-08-24T00:43:30;6.03;;;3.60;;
75616;SDS011;64200;55.426;37.758;2023-08-24T00:48:31;12.27;;;4.93;;
75616;SDS011;64200;55.426;37.758;2023-08-24T00:53:32;8.93;;;4.93;;
75616;SDS011;64200;55.426;37.758;2023-08-24T00:58:33;9.00;;;5.07;;
75616;SDS011;64200;55.426;37.758;2023-08-24T01:03:34;9.52;;;5.55;;
75616;SDS011;64200;55.426;37.758;2023-08-24T01:08:35;7.53;;;4.95;;
75616;SDS011;64200;55.426;37.758;2023-08-24T01:13:40;10.40;;;4.97;;
75616;SDS011;64200;55.426;37.758;2023-08-24T01:18:55;9.65;;;5.55;;
75616;SDS011;64200;55.426;37.758;2023-08-24T01:29:18;8.85;;;6.25;;
75616;SDS011;64200;55.426;37.758;2023-08-24T01:34:20;10.82;;;6.10;;
75616;SDS011;64200;55.426;37.758;2023-08-24T01:39:22;8.90;;;5.72;;
75616;SDS011;64200;55.426;37.758;2023-08-24T01:44:30;9.57;;;6.13;;
75616;SDS011;64200;55.426;37.758;2023-08-24T01:49:35;11.32;;;6.18;;
75616;SDS011;64200;55.426;37.758;2023-08-24T01:54:36;8.57;;;5.80;;
75616;SDS011;64200;55.426;37.758;2023-08-24T01:59:37;8.68;;;6.43;;
75616;SDS011;64200;55.426;37.758;2023-08-24T02:04:37;8.32;;;6.43;;
75616;SDS011;64200;55.426;37.758;2023-08-24T02:09:38;8.47;;;6.00;;
75616;SDS011;64200;55.426;37.758;2023-08-24T02:14:38;9.27;;;6.23;;
75616;SDS011;64200;55.426;37.758;2023-08-24T02:19:39;12.48;;;6.70;;
75616;SDS011;64200;55.426;37.758;2023-08-24T02:24:41;11.32;;;6.88;;
75616;SDS011;64200;55.426;37.758;2023-08-24T02:29:42;12.00;;;7.23;;
75616;SDS011;64200;55.426;37.758;2023-08-24T02:34:42;12.38;;;7.20;;
75616;SDS011;64200;55.426;37.758;2023-08-24T02:39:43;11.07;;;6.63;;
75616;SDS011;64200;55.426;37.758;2023-08-24T02:44:43;12.07;;;6.55;;
75616;SDS011;64200;55.426;37.758;2023-08-24T02:49:44;15.37;;;7.90;;
75616;SDS011;64200;55.426;37.758;2023-08-24T02:54:44;12.80;;;8.00;;
75616;SDS011;64200;55.426;37.758;2023-08-24T02:59:45;13.73;;;7.30;;
75616;SDS011;64200;55.426;37.758;2023-08-24T03:04:45;14.95;;;7.80;;
75616;SDS011;64200;55.426;37.758;2023-08-24T03:09:46;11.52;;;7.45;;
75616;SDS011;64200;55.426;37.758;2023-08-24T03:14:46;11.77;;;7.37;;
75616;SDS011;64200;55.426;37.758;2023-08-24T03:19:47;12.27;;;7.57;;
75616;SDS011;64200;55.426;37.758;2023-08-24T03:24:47;11.23;;;7.55;;
75616;SDS011;64200;55.426;37.758;2023-08-24T03:29:48;11.38;;;7.50;;
75616;SDS011;64200;55.426;37.758;2023-08-24T03:34:49;12.48;;;7.35;;
75616;SDS011;64200;55.426;37.758;2023-08-24T03:39:49;12.95;;;7.05;;
75616;SDS011;64200;55.426;37.758;2023-08-24T03:44:50;11.43;;;7.63;;
75616;SDS011;64200;55.426;37.758;2023-08-24T03:49:50;11.38;;;7.15;;
75616;SDS011;64200;55.426;37.758;2023-08-24T03:54:51;13.23;;;7.43;;
75616;SDS011;64200;55.426;37.758;2023-08-24T03:59:51;14.53;;;8.07;;
75616;SDS011;64200;55.426;37.758;2023-08-24T04:04:52;13.17;;;8.03;;
75616;SDS011;64200;55.426;37.758;2023-08-24T04:09:52;14.45;;;8.43;;
75616;SDS011;64200;55.426;37.758;2023-08-24T04:14:53;12.25;;;8.35;;
75616;SDS011;64200;55.426;37.758;2023-08-24T04:19:53;16.67;;;8.57;;
75616;SDS011;64200;55.426;37.758;2023-08-24T04:24:54;13.07;;;8.90;;
75616;SDS011;64200;55.426;37.758;2023-08-24T04:29:55;10.38;;;7.38;;
75616;SDS011;64200;55.426;37.758;2023-08-24T04:34:55;11.73;;;8.27;;
75616;SDS011;64200;55.426;37.758;2023-08-24T04:39:56;13.32;;;7.63;;
75616;SDS011;64200;55.426;37.758;2023-08-24T04:44:56;15.43;;;9.13;;
75616;SDS011;64200;55.426;37.758;2023-08-24T04:49:57;15.40;;;8.40;;
75616;SDS011;64200;55.426;37.758;2023-08-24T04:54:57;10.37;;;7.27;;
75616;SDS011;64200;55.426;37.758;2023-08-24T04:59:58;13.43;;;7.80;;
75616;SDS011;64200;55.426;37.758;2023-08-24T05:04:58;11.23;;;7.95;;
75616;SDS011;64200;55.426;37.758;2023-08-24T05:09:59;11.93;;;7.75;;
75616;SDS011;64200;55.426;37.758;2023-08-24T05:14:59;14.00;;;8.73;;
75616;SDS011;64200;55.426;37.758;2023-08-24T05:20:00;16.05;;;12.20;;
75616;SDS011;64200;55.426;37.758;2023-08-24T05:25:02;14.27;;;10.23;;
75616;SDS011;64200;55.426;37.758;2023-08-24T05:30:03;14.85;;;9.57;;
75616;SDS011;64200;55.426;37.758;2023-08-24T05:35:23;16.70;;;10.23;;
75616;SDS011;64200;55.426;37.758;2023-08-24T05:40:26;18.52;;;10.82;;
75616;SDS011;64200;55.426;37.758;2023-08-24T05:45:27;12.93;;;8.80;;
75616;SDS011;64200;55.426;37.758;2023-08-24T05:50:27;15.67;;;8.57;;
75616;SDS011;64200;55.426;37.758;2023-08-24T05:55:28;13.50;;;8.13;;
75616;SDS011;64200;55.426;37.758;2023-08-24T06:00:28;11.90;;;8.07;;
75616;SDS011;64200;55.426;37.758;2023-08-24T06:05:30;13.25;;;8.75;;
75616;SDS011;64200;55.426;37.758;2023-08-24T06:10:31;13.15;;;8.63;;
75616;SDS011;64200;55.426;37.758;2023-08-24T06:15:31;11.63;;;8.93;;
75616;SDS011;64200;55.426;37.758;2023-08-24T06:20:32;12.25;;;8.75;;
75616;SDS011;64200;55.426;37.758;2023-08-24T06:25:33;18.50;;;11.38;;
75616;SDS011;64200;55.426;37.758;2023-08-24T06:30:36;14.32;;;10.35;;
75616;SDS011;64200;55.426;37.758;2023-08-24T06:35:39;12.23;;;8.68;;
75616;SDS011;64200;55.426;37.758;2023-08-24T06:40:41;12.68;;;8.30;;
75616;SDS011;64200;55.426;37.758;2023-08-24T06:45:43;12.93;;;9.18;;
75616;SDS011;64200;55.426;37.758;2023-08-24T06:50:44;11.60;;;8.77;;
75616;SDS011;64200;55.426;37.758;2023-08-24T06:55:44;14.17;;;8.67;;
75616;SDS011;64200;55.426;37.758;2023-08-24T07:00:45;13.13;;;10.02;;
75616;SDS011;64200;55.426;37.758;2023-08-24T07:05:45;15.20;;;9.20;;
75616;SDS011;64200;55.426;37.758;2023-08-24T07:10:46;14.98;;;9.00;;
75616;SDS011;64200;55.426;37.758;2023-08-24T07:15:47;11.03;;;8.03;;
75616;SDS011;64200;55.426;37.758;2023-08-24T07:20:47;11.67;;;7.80;;
75616;SDS011;64200;55.426;37.758;2023-08-24T07:25:48;11.47;;;7.77;;
75616;SDS011;64200;55.426;37.758;2023-08-24T07:30:48;10.73;;;7.72;;
75616;SDS011;64200;55.426;37.758;2023-08-24T07:35:49;10.98;;;8.00;;
75616;SDS011;64200;55.426;37.758;2023-08-24T07:40:49;14.07;;;8.47;;
75616;SDS011;64200;55.426;37.758;2023-08-24T07:45:50;12.80;;;8.43;;
75616;SDS011;64200;55.426;37.758;2023-08-24T07:50:52;10.82;;;8.40;;
75616;SDS011;64200;55.426;37.758;2023-08-24T07:55:53;13.52;;;8.70;;
75616;SDS011;64200;55.426;37.758;2023-08-24T08:05:59;12.30;;;7.97;;
75616;SDS011;64200;55.426;37.758;2023-08-24T08:11:00;9.32;;;7.15;;
75616;SDS011;64200;55.426;37.758;2023-08-24T08:16:05;8.95;;;6.45;;
75616;SDS011;64200;55.426;37.758;2023-08-24T08:21:10;10.38;;;6.82;;
75616;SDS011;64200;55.426;37.758;2023-08-24T08:26:14;11.75;;;6.30;;
75616;SDS011;64200;55.426;37.758;2023-08-24T08:31:16;10.48;;;5.78;;
75616;SDS011;64200;55.426;37.758;2023-08-24T08:36:16;8.43;;;5.30;;
75616;SDS011;64200;55.426;37.758;2023-08-24T08:41:17;7.90;;;5.70;;
75616;SDS011;64200;55.426;37.758;2023-08-24T08:46:22;8.25;;;5.72;;
75616;SDS011;64200;55.426;37.758;2023-08-24T08:51:23;10.07;;;5.85;;
75616;SDS011;64200;55.426;37.758;2023-08-24T08:56:24;10.82;;;6.40;;
75616;SDS011;64200;55.426;37.758;2023-08-24T09:01:25;11.75;;;6.47;;
75616;SDS011;64200;55.426;37.758;2023-08-24T09:06:26;8.82;;;6.05;;
75616;SDS011;64200;55.426;37.758;2023-08-24T09:11:27;8.32;;;5.80;;
75616;SDS011;64200;55.426;37.758;2023-08-24T09:16:30;9.68;;;5.88;;
75616;SDS011;64200;55.426;37.758;2023-08-24T09:26:36;8.85;;;5.82;;
75616;SDS011;64200;55.426;37.758;2023-08-24T09:31:42;8.70;;;5.88;;
75616;SDS011;64200;55.426;37.758;2023-08-24T09:36:46;9.60;;;6.05;;
75616;SDS011;64200;55.426;37.758;2023-08-24T09:41:48;8.20;;;6.38;;
75616;SDS011;64200;55.426;37.758;2023-08-24T09:46:51;9.05;;;6.70;;
75616;SDS011;64200;55.426;37.758;2023-08-24T09:51:51;10.47;;;7.10;;
75616;SDS011;64200;55.426;37.758;2023-08-24T09:56:59;9.55;;;6.57;;
75616;SDS011;64200;55.426;37.758;2023-08-24T10:02:00;11.48;;;7.28;;
75616;SDS011;64200;55.426;37.758;2023-08-24T10:07:06;9.68;;;7.80;;
75616;SDS011;64200;55.426;37.758;2023-08-24T10:12:11;12.38;;;8.30;;
75616;SDS011;64200;55.426;37.758;2023-08-24T10:17:15;10.63;;;7.65;;
75616;SDS011;64200;55.426;37.758;2023-08-24T10:22:16;10.52;;;8.00;;
75616;SDS011;64200;55.426;37.758;2023-08-24T10:27:18;11.00;;;7.20;;
75616;SDS011;64200;55.426;37.758;2023-08-24T10:32:20;10.52;;;8.18;;
75616;SDS011;64200;55.426;37.758;2023-08-24T10:37:26;9.98;;;7.00;;
75616;SDS011;64200;55.426;37.758;2023-08-24T10:47:28;7.27;;;5.77;;
75616;SDS011;64200;55.426;37.758;2023-08-24T10:52:32;7.18;;;6.15;;
75616;SDS011;64200;55.426;37.758;2023-08-24T10:57:37;9.23;;;7.25;;
75616;SDS011;64200;55.426;37.758;2023-08-24T11:02:45;8.50;;;6.47;;
75616;SDS011;64200;55.426;37.758;2023-08-24T11:13:06;8.25;;;6.78;;
75616;SDS011;64200;55.426;37.758;2023-08-24T11:18:23;8.40;;;5.85;;
75616;SDS011;64200;55.426;37.758;2023-08-24T11:23:28;9.55;;;7.00;;
75616;SDS011;64200;55.426;37.758;2023-08-24T11:28:29;9.18;;;6.95;;
75616;SDS011;64200;55.426;37.758;2023-08-24T11:33:34;8.85;;;6.75;;
75616;SDS011;64200;55.426;37.758;2023-08-24T11:38:39;9.15;;;7.07;;
75616;SDS011;64200;55.426;37.758;2023-08-24T11:43:41;9.57;;;7.40;;
75616;SDS011;64200;55.426;37.758;2023-08-24T11:48:45;9.45;;;6.32;;
75616;SDS011;64200;55.426;37.758;2023-08-24T11:53:46;7.10;;;5.80;;
75616;SDS011;64200;55.426;37.758;2023-08-24T11:58:48;6.05;;;5.35;;
75616;SDS011;64200;55.426;37.758;2023-08-24T12:03:51;7.78;;;6.03;;
75616;SDS011;64200;55.426;37.758;2023-08-24T12:08:52;10.07;;;6.63;;
75616;SDS011;64200;55.426;37.758;2023-08-24T12:13:54;10.50;;;6.88;;
75616;SDS011;64200;55.426;37.758;2023-08-24T12:18:56;6.85;;;5.90;;
75616;SDS011;64200;55.426;37.758;2023-08-24T12:29:07;9.02;;;5.78;;
75616;SDS011;64200;55.426;37.758;2023-08-24T12:34:08;8.00;;;5.82;;
75616;SDS011;64200;55.426;37.758;2023-08-24T12:39:10;9.48;;;6.85;;
75616;SDS011;64200;55.426;37.758;2023-08-24T12:44:15;9.68;;;7.38;;
75616;SDS011;64200;55.426;37.758;2023-08-24T12:49:17;11.88;;;7.72;;
75616;SDS011;64200;55.426;37.758;2023-08-24T12:54:17;9.13;;;7.30;;
75616;SDS011;64200;55.426;37.758;2023-08-24T12:59:18;10.35;;;7.72;;
75616;SDS011;64200;55.426;37.758;2023-08-24T13:04:18;10.63;;;7.27;;
75616;SDS011;64200;55.426;37.758;2023-08-24T13:09:19;9.60;;;6.70;;
75616;SDS011;64200;55.426;37.758;2023-08-24T13:14:19;9.63;;;6.83;;
75616;SDS011;64200;55.426;37.758;2023-08-24T13:19:20;14.18;;;8.35;;
75616;SDS011;64200;55.426;37.758;2023-08-24T13:24:21;12.38;;;7.95;;
75616;SDS011;64200;55.426;37.758;2023-08-24T13:29:22;11.63;;;6.43;;
75616;SDS011;64200;55.426;37.758;2023-08-24T13:34:22;9.75;;;6.70;;
75616;SDS011;64200;55.426;37.758;2023-08-24T13:39:23;13.47;;;7.53;;
75616;SDS011;64200;55.426;37.758;2023-08-24T13:44:23;11.65;;;6.57;;
75616;SDS011;64200;55.426;37.758;2023-08-24T13:49:24;9.80;;;5.22;;
75616;SDS011;64200;55.426;37.758;2023-08-24T13:54:24;8.30;;;5.80;;
75616;SDS011;64200;55.426;37.758;2023-08-24T13:59:26;9.45;;;5.90;;
75616;SDS011;64200;55.426;37.758;2023-08-24T14:04:27;9.82;;;6.03;;
75616;SDS011;64200;55.426;37.758;2023-08-24T14:09:28;8.40;;;5.43;;
75616;SDS011;64200;55.426;37.758;2023-08-24T14:14:28;6.28;;;4.45;;
75616;SDS011;64200;55.426;37.758;2023-08-24T14:19:29;8.73;;;5.55;;
75616;SDS011;64200;55.426;37.758;2023-08-24T14:24:29;7.77;;;5.17;;
75616;SDS011;64200;55.426;37.758;2023-08-24T14:29:30;8.52;;;4.97;;
75616;SDS011;64200;55.426;37.758;2023-08-24T14:34:30;6.60;;;4.43;;
75616;SDS011;64200;55.426;37.758;2023-08-24T14:39:31;6.90;;;4.40;;
75616;SDS011;64200;55.426;37.758;2023-08-24T14:44:31;7.97;;;4.03;;
75616;SDS011;64200;55.426;37.758;2023-08-24T14:49:32;4.93;;;4.33;;
75616;SDS011;64200;55.426;37.758;2023-08-24T14:54:32;7.15;;;4.15;;
75616;SDS011;64200;55.426;37.758;2023-08-24T14:59:33;6.20;;;4.07;;
75616;SDS011;64200;55.426;37.758;2023-08-24T15:04:34;6.13;;;3.90;;
75616;SDS011;64200;55.426;37.758;2023-08-24T15:09:34;5.85;;;4.30;;
75616;SDS011;64200;55.426;37.758;2023-08-24T15:14:35;8.25;;;4.55;;
75616;SDS011;64200;55.426;37.758;2023-08-24T15:19:35;6.85;;;4.35;;
75616;SDS011;64200;55.426;37.758;2023-08-24T15:24:36;11.23;;;5.43;;
75616;SDS011;64200;55.426;37.758;2023-08-24T15:29:36;6.27;;;4.53;;
75616;SDS011;64200;55.426;37.758;2023-08-24T15:34:37;13.47;;;5.13;;
75616;SDS011;64200;55.426;37.758;2023-08-24T15:39:38;9.68;;;5.15;;
75616;SDS011;64200;55.426;37.758;2023-08-24T15:44:40;7.88;;;4.47;;
75616;SDS011;64200;55.426;37.758;2023-08-24T15:49:40;6.15;;;3.80;;
75616;SDS011;64200;55.426;37.758;2023-08-24T15:54:41;8.80;;;4.43;;
75616;SDS011;64200;55.426;37.758;2023-08-24T15:59:42;7.13;;;3.87;;
75616;SDS011;64200;55.426;37.758;2023-08-24T16:04:42;11.10;;;5.40;;
75616;SDS011;64200;55.426;37.758;2023-08-24T16:09:43;7.80;;;3.73;;
75616;SDS011;64200;55.426;37.758;2023-08-24T16:14:44;14.43;;;6.90;;
75616;SDS011;64200;55.426;37.758;2023-08-24T16:19:45;12.87;;;6.43;;
75616;SDS011;64200;55.426;37.758;2023-08-24T16:24:45;12.23;;;5.50;;
75616;SDS011;64200;55.426;37.758;2023-08-24T16:29:45;8.93;;;5.20;;
75616;SDS011;64200;55.426;37.758;2023-08-24T16:34:46;12.10;;;4.70;;
75616;SDS011;64200;55.426;37.758;2023-08-24T16:39:47;12.00;;;5.28;;
75616;SDS011;64200;55.426;37.758;2023-08-24T16:44:47;17.25;;;10.02;;
75616;SDS011;64200;55.426;37.758;2023-08-24T16:49:48;24.53;;;13.47;;
75616;SDS011;64200;55.426;37.758;2023-08-24T16:54:48;16.50;;;9.27;;
75616;SDS011;64200;55.426;37.758;2023-08-24T16:59:50;16.30;;;8.88;;
75616;SDS011;64200;55.426;37.758;2023-08-24T17:04:50;19.07;;;7.37;;
75616;SDS011;64200;55.426;37.758;2023-08-24T17:09:51;13.83;;;7.23;;
75616;SDS011;64200;55.426;37.758;2023-08-24T17:14:51;11.47;;;6.97;;
75616;SDS011;64200;55.426;37.758;2023-08-24T17:19:52;17.00;;;8.10;;
75616;SDS011;64200;55.426;37.758;2023-08-24T17:24:52;18.00;;;10.13;;
75616;SDS011;64200;55.426;37.758;2023-08-24T17:29:53;15.57;;;8.03;;
75616;SDS011;64200;55.426;37.758;2023-08-24T17:34:53;17.17;;;8.70;;
75616;SDS011;64200;55.426;37.758;2023-08-24T17:39:54;14.35;;;8.45;;
75616;SDS011;64200;55.426;37.758;2023-08-24T17:44:54;20.37;;;8.03;;
75616;SDS011;64200;55.426;37.758;2023-08-24T17:49:55;18.35;;;9.75;;
75616;SDS011;64200;55.426;37.758;2023-08-24T17:54:56;14.70;;;10.13;;
75616;SDS011;64200;55.426;37.758;2023-08-24T17:59:56;13.87;;;8.80;;
75616;SDS011;64200;55.426;37.758;2023-08-24T18:04:57;12.77;;;7.85;;
75616;SDS011;64200;55.426;37.758;2023-08-24T18:09:57;11.93;;;7.65;;
75616;SDS011;64200;55.426;37.758;2023-08-24T18:14:58;8.18;;;6.13;;
75616;SDS011;64200;55.426;37.758;2023-08-24T18:19:58;10.43;;;7.23;;
75616;SDS011;64200;55.426;37.758;2023-08-24T18:24:59;14.50;;;7.60;;
75616;SDS011;64200;55.426;37.758;2023-08-24T18:29:59;11.18;;;6.05;;
75616;SDS011;64200;55.426;37.758;2023-08-24T18:35:00;13.63;;;7.47;;
75616;SDS011;64200;55.426;37.758;2023-08-24T18:40:01;13.68;;;7.95;;
75616;SDS011;64200;55.426;37.758;2023-08-24T18:45:06;15.07;;;8.52;;
75616;SDS011;64200;55.426;37.758;2023-08-24T18:50:07;18.45;;;10.00;;
75616;SDS011;64200;55.426;37.758;2023-08-24T18:55:07;14.13;;;7.97;;
75616;SDS011;64200;55.426;37.758;2023-08-24T19:00:08;14.48;;;8.32;;
75616;SDS011;64200;55.426;37.758;2023-08-24T19:05:09;14.50;;;9.25;;
75616;SDS011;64200;55.426;37.758;2023-08-24T19:10:10;19.20;;;10.70;;
75616;SDS011;64200;55.426;37.758;2023-08-24T19:15:10;14.63;;;10.27;;
75616;SDS011;64200;55.426;37.758;2023-08-24T19:20:11;18.48;;;11.05;;
75616;SDS011;64200;55.426;37.758;2023-08-24T19:25:11;15.68;;;10.38;;
75616;SDS011;64200;55.426;37.758;2023-08-24T19:30:13;26.27;;;16.25;;
75616;SDS011;64200;55.426;37.758;2023-08-24T19:35:14;19.50;;;14.75;;
75616;SDS011;64200;55.426;37.758;2023-08-24T19:40:14;16.50;;;10.90;;
75616;SDS011;64200;55.426;37.758;2023-08-24T19:45:15;13.32;;;8.80;;
75616;SDS011;64200;55.426;37.758;2023-08-24T19:50:16;14.80;;;9.23;;
75616;SDS011;64200;55.426;37.758;2023-08-24T19:55:17;14.82;;;8.68;;
75616;SDS011;64200;55.426;37.758;2023-08-24T20:00:18;16.73;;;10.07;;
75616;SDS011;64200;55.426;37.758;2023-08-24T20:05:22;15.77;;;9.98;;
75616;SDS011;64200;55.426;37.758;2023-08-24T20:10:23;19.63;;;10.00;;
75616;SDS011;64200;55.426;37.758;2023-08-24T20:15:24;13.88;;;8.52;;
75616;SDS011;64200;55.426;37.758;2023-08-24T20:20:25;15.23;;;7.95;;
75616;SDS011;64200;55.426;37.758;2023-08-24T20:25:25;22.50;;;9.98;;
75616;SDS011;64200;55.426;37.758;2023-08-24T20:30:26;17.88;;;11.07;;
75616;SDS011;64200;55.426;37.758;2023-08-24T20:35:26;19.80;;;9.13;;
75616;SDS011;64200;55.426;37.758;2023-08-24T20:40:27;27.30;;;9.40;;
75616;SDS011;64200;55.426;37.758;2023-08-24T20:45:28;18.17;;;8.43;;
75616;SDS011;64200;55.426;37.758;2023-08-24T20:50:29;24.65;;;8.15;;
75616;SDS011;64200;55.426;37.758;2023-08-24T20:55:32;15.68;;;7.85;;
75616;SDS011;64200;55.426;37.758;2023-08-24T21:00:33;16.08;;;8.10;;
75616;SDS011;64200;55.426;37.758;2023-08-24T21:05:33;18.75;;;8.95;;
75616;SDS011;64200;55.426;37.758;2023-08-24T21:10:34;20.10;;;9.27;;
75616;SDS011;64200;55.426;37.758;2023-08-24T21:15:35;18.52;;;9.00;;
75616;SDS011;64200;55.426;37.758;2023-08-24T21:20:35;18.98;;;8.60;;
75616;SDS011;64200;55.426;37.758;2023-08-24T21:25:36;15.80;;;8.20;;
75616;SDS011;64200;55.426;37.758;2023-08-24T21:30:37;20.85;;;9.55;;
75616;SDS011;64200;55.426;37.758;2023-08-24T21:35:37;16.33;;;8.70;;
75616;SDS011;64200;55.426;37.758;2023-08-24T21:40:39;14.77;;;8.90;;
75616;SDS011;64200;55.426;37.758;2023-08-24T21:45:40;18.80;;;9.50;;
75616;SDS011;64200;55.426;37.758;2023-08-24T21:50:41;15.82;;;8.25;;
75616;SDS011;64200;55.426;37.758;2023-08-24T21:55:41;15.13;;;7.87;;
75616;SDS011;64200;55.426;37.758;2023-08-24T22:00:42;16.52;;;8.13;;
75616;SDS011;64200;55.426;37.758;2023-08-24T22:05:43;17.02;;;8.60;;
75616;SDS011;64200;55.426;37.758;2023-08-24T22:10:44;14.77;;;8.50;;
75616;SDS011;64200;55.426;37.758;2023-08-24T22:15:44;17.60;;;8.63;;
75616;SDS011;64200;55.426;37.758;2023-08-24T22:20:45;17.40;;;9.77;;
75616;SDS011;64200;55.426;37.758;2023-08-24T22:25:45;20.48;;;10.00;;
75616;SDS011;64200;55.426;37.758;2023-08-24T22:30:47;26.10;;;13.68;;
75616;SDS011;64200;55.426;37.758;2023-08-24T22:35:48;23.45;;;10.85;;
75616;SDS011;64200;55.426;37.758;2023-08-24T22:40:51;19.00;;;9.80;;
75616;SDS011;64200;55.426;37.758;2023-08-24T22:45:52;16.33;;;8.30;;
75616;SDS011;64200;55.426;37.758;2023-08-24T22:50:52;13.55;;;6.80;;
75616;SDS011;64200;55.426;37.758;2023-08-24T22:55:53;11.25;;;5.93;;
75616;SDS011;64200;55.426;37.758;2023-08-24T23:00:54;14.40;;;6.78;;
75616;SDS011;64200;55.426;37.758;2023-08-24T23:05:55;12.52;;;6.95;;
75616;SDS011;64200;55.426;37.758;2023-08-24T23:10:55;9.35;;;6.78;;
75616;SDS011;64200;55.426;37.758;2023-08-24T23:15:56;16.40;;;7.60;;
75616;SDS011;64200;55.426;37.758;2023-08-24T23:20:56;15.33;;;7.80;;
75616;SDS011;64200;55.426;37.758;2023-08-24T23:25:57;13.80;;;7.27;;
75616;SDS011;64200;55.426;37.758;2023-08-24T23:30:59;16.87;;;8.43;;
75616;SDS011;64200;55.426;37.758;2023-08-24T23:36:00;19.70;;;7.53;;
75616;SDS011;64200;55.426;37.758;2023-08-24T23:41:00;13.27;;;7.60;;
75616;SDS011;64200;55.426;37.758;2023-08-24T23:46:02;14.60;;;8.10;;
75616;SDS011;64200;55.426;37.758;2023-08-24T23:51:03;12.52;;;7.47;;
75616;SDS011;64200;55.426;37.758;2023-08-24T23:56:03;14.27;;;7.80;;
